sensor_id;sensor_type;location;lat;lon;timestamp;P1;durP1;ratioP1;P2;durP2;ratioP2
11414;SDS011;5763;42.714;23.244;2023-03-20T00:00:13;10.48;;;7.63;;
11414;SDS011;5763;42.714;23.244;2023-03-20T00:02:46;14.00;;;8.45;;
11414;SDS011;5763;42.714;23.244;2023-03-20T00:05:16;14.15;;;8.77;;
11414;SDS011;5763;42.714;23.244;2023-03-20T00:07:45;13.82;;;8.95;;
11414;SDS011;5763;42.714;23.244;2023-03-20T00:10:13;11.52;;;8.30;;
11414;SDS011;5763;42.714;23.244;2023-03-20T00:12:42;10.85;;;8.70;;
11414;SDS011;5763;42.714;23.244;2023-03-20T00:15:18;11.77;;;8.73;;
11414;SDS011;5763;42.714;23.244;2023-03-20T00:17:49;14.40;;;9.20;;
11414;SDS011;5763;42.714;23.244;2023-03-20T00:20:16;12.93;;;9.27;;
11414;SDS011;5763;42.714;23.244;2023-03-20T00:22:43;10.77;;;8.20;;
11414;SDS011;5763;42.714;23.244;2023-03-20T00:25:11;13.13;;;7.93;;
11414;SDS011;5763;42.714;23.244;2023-03-20T00:27:40;15.30;;;8.35;;
11414;SDS011;5763;42.714;23.244;2023-03-20T00:30:13;12.82;;;8.48;;
11414;SDS011;5763;42.714;23.244;2023-03-20T00:32:46;11.50;;;8.52;;
11414;SDS011;5763;42.714;23.244;2023-03-20T00:35:17;14.45;;;8.52;;
11414;SDS011;5763;42.714;23.244;2023-03-20T00:37:49;11.88;;;8.40;;
11414;SDS011;5763;42.714;23.244;2023-03-20T00:40:17;11.45;;;8.00;;
11414;SDS011;5763;42.714;23.244;2023-03-20T00:42:45;11.90;;;8.45;;
11414;SDS011;5763;42.714;23.244;2023-03-20T00:45:16;12.10;;;8.35;;
11414;SDS011;5763;42.714;23.244;2023-03-20T00:47:46;13.48;;;8.20;;
11414;SDS011;5763;42.714;23.244;2023-03-20T00:50:16;11.70;;;8.25;;
11414;SDS011;5763;42.714;23.244;2023-03-20T00:52:44;12.25;;;8.20;;
11414;SDS011;5763;42.714;23.244;2023-03-20T00:55:11;13.27;;;7.95;;
11414;SDS011;5763;42.714;23.244;2023-03-20T00:57:39;11.30;;;8.70;;
11414;SDS011;5763;42.714;23.244;2023-03-20T01:00:18;11.70;;;8.05;;
11414;SDS011;5763;42.714;23.244;2023-03-20T01:02:50;10.85;;;8.60;;
11414;SDS011;5763;42.714;23.244;2023-03-20T01:05:18;10.23;;;7.70;;
11414;SDS011;5763;42.714;23.244;2023-03-20T01:07:46;12.63;;;8.43;;
11414;SDS011;5763;42.714;23.244;2023-03-20T01:10:13;13.32;;;8.73;;
11414;SDS011;5763;42.714;23.244;2023-03-20T01:12:40;11.70;;;7.82;;
11414;SDS011;5763;42.714;23.244;2023-03-20T01:15:15;12.23;;;8.73;;
11414;SDS011;5763;42.714;23.244;2023-03-20T01:17:44;10.18;;;7.97;;
11414;SDS011;5763;42.714;23.244;2023-03-20T01:20:17;11.70;;;8.00;;
11414;SDS011;5763;42.714;23.244;2023-03-20T01:22:47;14.18;;;7.95;;
11414;SDS011;5763;42.714;23.244;2023-03-20T01:25:14;10.20;;;7.88;;
11414;SDS011;5763;42.714;23.244;2023-03-20T01:27:42;15.85;;;8.02;;
11414;SDS011;5763;42.714;23.244;2023-03-20T01:32:58;9.77;;;6.47;;
11414;SDS011;5763;42.714;23.244;2023-03-20T01:35:28;11.85;;;7.25;;
11414;SDS011;5763;42.714;23.244;2023-03-20T01:37:55;10.38;;;7.45;;
11414;SDS011;5763;42.714;23.244;2023-03-20T01:40:27;9.48;;;6.80;;
11414;SDS011;5763;42.714;23.244;2023-03-20T01:42:58;10.77;;;7.68;;
11414;SDS011;5763;42.714;23.244;2023-03-20T01:45:28;8.75;;;6.78;;
11414;SDS011;5763;42.714;23.244;2023-03-20T01:47:59;9.18;;;7.15;;
11414;SDS011;5763;42.714;23.244;2023-03-20T01:50:30;10.55;;;6.95;;
11414;SDS011;5763;42.714;23.244;2023-03-20T01:53:05;11.13;;;7.35;;
11414;SDS011;5763;42.714;23.244;2023-03-20T01:55:36;9.85;;;6.72;;
11414;SDS011;5763;42.714;23.244;2023-03-20T01:58:06;9.45;;;6.80;;
11414;SDS011;5763;42.714;23.244;2023-03-20T02:00:37;10.63;;;7.20;;
11414;SDS011;5763;42.714;23.244;2023-03-20T02:03:05;9.13;;;6.10;;
11414;SDS011;5763;42.714;23.244;2023-03-20T02:05:36;9.65;;;6.30;;
11414;SDS011;5763;42.714;23.244;2023-03-20T02:08:09;9.75;;;6.18;;
11414;SDS011;5763;42.714;23.244;2023-03-20T02:10:42;7.63;;;5.90;;
11414;SDS011;5763;42.714;23.244;2023-03-20T02:13:10;7.32;;;5.63;;
11414;SDS011;5763;42.714;23.244;2023-03-20T02:15:51;6.57;;;5.65;;
11414;SDS011;5763;42.714;23.244;2023-03-20T02:18:20;7.78;;;5.57;;
11414;SDS011;5763;42.714;23.244;2023-03-20T02:20:53;9.00;;;6.00;;
11414;SDS011;5763;42.714;23.244;2023-03-20T02:26:52;12.10;;;6.88;;
11414;SDS011;5763;42.714;23.244;2023-03-20T02:29:43;12.30;;;7.03;;
11414;SDS011;5763;42.714;23.244;2023-03-20T02:32:50;11.20;;;7.05;;
11414;SDS011;5763;42.714;23.244;2023-03-20T02:39:06;12.05;;;7.03;;
11414;SDS011;5763;42.714;23.244;2023-03-20T02:41:46;9.60;;;6.93;;
11414;SDS011;5763;42.714;23.244;2023-03-20T02:44:20;9.10;;;7.18;;
11414;SDS011;5763;42.714;23.244;2023-03-20T02:46:53;8.80;;;7.25;;
11414;SDS011;5763;42.714;23.244;2023-03-20T02:49:27;10.15;;;7.55;;
11414;SDS011;5763;42.714;23.244;2023-03-20T02:52:04;11.50;;;7.35;;
11414;SDS011;5763;42.714;23.244;2023-03-20T02:54:44;9.90;;;6.93;;
11414;SDS011;5763;42.714;23.244;2023-03-20T02:57:20;15.55;;;8.05;;
11414;SDS011;5763;42.714;23.244;2023-03-20T02:59:59;13.65;;;8.38;;
11414;SDS011;5763;42.714;23.244;2023-03-20T03:02:33;11.15;;;7.60;;
11414;SDS011;5763;42.714;23.244;2023-03-20T03:05:06;13.68;;;7.25;;
11414;SDS011;5763;42.714;23.244;2023-03-20T03:07:36;9.43;;;7.13;;
11414;SDS011;5763;42.714;23.244;2023-03-20T03:10:09;9.40;;;7.53;;
11414;SDS011;5763;42.714;23.244;2023-03-20T03:12:41;12.82;;;8.32;;
11414;SDS011;5763;42.714;23.244;2023-03-20T03:15:12;16.75;;;10.18;;
11414;SDS011;5763;42.714;23.244;2023-03-20T03:17:44;19.83;;;12.70;;
11414;SDS011;5763;42.714;23.244;2023-03-20T03:20:14;16.95;;;11.77;;
11414;SDS011;5763;42.714;23.244;2023-03-20T03:22:47;17.00;;;11.27;;
11414;SDS011;5763;42.714;23.244;2023-03-20T03:25:16;17.60;;;10.13;;
11414;SDS011;5763;42.714;23.244;2023-03-20T03:27:43;14.75;;;10.65;;
11414;SDS011;5763;42.714;23.244;2023-03-20T03:30:15;14.25;;;10.13;;
11414;SDS011;5763;42.714;23.244;2023-03-20T03:32:48;14.93;;;9.45;;
11414;SDS011;5763;42.714;23.244;2023-03-20T03:35:17;12.10;;;8.93;;
11414;SDS011;5763;42.714;23.244;2023-03-20T03:37:48;11.30;;;8.35;;
11414;SDS011;5763;42.714;23.244;2023-03-20T03:40:27;9.85;;;7.65;;
11414;SDS011;5763;42.714;23.244;2023-03-20T03:43:02;12.15;;;7.65;;
11414;SDS011;5763;42.714;23.244;2023-03-20T03:45:36;12.35;;;7.53;;
11414;SDS011;5763;42.714;23.244;2023-03-20T03:48:06;11.57;;;7.57;;
11414;SDS011;5763;42.714;23.244;2023-03-20T03:50:39;11.95;;;7.50;;
11414;SDS011;5763;42.714;23.244;2023-03-20T03:53:12;11.65;;;8.55;;
11414;SDS011;5763;42.714;23.244;2023-03-20T03:55:45;12.98;;;7.75;;
11414;SDS011;5763;42.714;23.244;2023-03-20T03:58:16;10.90;;;7.97;;
11414;SDS011;5763;42.714;23.244;2023-03-20T04:00:48;12.02;;;7.82;;
11414;SDS011;5763;42.714;23.244;2023-03-20T04:03:17;11.77;;;7.95;;
11414;SDS011;5763;42.714;23.244;2023-03-20T04:05:48;13.82;;;8.13;;
11414;SDS011;5763;42.714;23.244;2023-03-20T04:08:18;10.52;;;7.53;;
11414;SDS011;5763;42.714;23.244;2023-03-20T04:10:46;10.40;;;7.57;;
11414;SDS011;5763;42.714;23.244;2023-03-20T04:13:13;11.65;;;8.02;;
11414;SDS011;5763;42.714;23.244;2023-03-20T04:15:40;13.52;;;7.82;;
11414;SDS011;5763;42.714;23.244;2023-03-20T04:18:08;15.93;;;9.63;;
11414;SDS011;5763;42.714;23.244;2023-03-20T04:20:40;14.73;;;9.68;;
11414;SDS011;5763;42.714;23.244;2023-03-20T04:23:07;15.15;;;9.00;;
11414;SDS011;5763;42.714;23.244;2023-03-20T04:25:34;11.30;;;7.90;;
11414;SDS011;5763;42.714;23.244;2023-03-20T04:28:03;10.00;;;7.63;;
11414;SDS011;5763;42.714;23.244;2023-03-20T04:30:30;9.98;;;7.63;;
11414;SDS011;5763;42.714;23.244;2023-03-20T04:32:56;11.50;;;7.85;;
11414;SDS011;5763;42.714;23.244;2023-03-20T04:35:23;10.63;;;7.85;;
11414;SDS011;5763;42.714;23.244;2023-03-20T04:37:51;12.35;;;7.80;;
11414;SDS011;5763;42.714;23.244;2023-03-20T04:40:18;11.68;;;8.13;;
11414;SDS011;5763;42.714;23.244;2023-03-20T04:42:45;12.05;;;8.20;;
11414;SDS011;5763;42.714;23.244;2023-03-20T04:45:13;12.60;;;7.70;;
11414;SDS011;5763;42.714;23.244;2023-03-20T04:47:40;11.25;;;7.55;;
11414;SDS011;5763;42.714;23.244;2023-03-20T04:50:07;11.02;;;7.72;;
11414;SDS011;5763;42.714;23.244;2023-03-20T04:52:34;12.55;;;8.63;;
11414;SDS011;5763;42.714;23.244;2023-03-20T04:55:01;10.98;;;8.60;;
11414;SDS011;5763;42.714;23.244;2023-03-20T04:57:28;11.27;;;7.93;;
11414;SDS011;5763;42.714;23.244;2023-03-20T04:59:56;13.05;;;8.27;;
11414;SDS011;5763;42.714;23.244;2023-03-20T05:02:24;12.05;;;8.23;;
11414;SDS011;5763;42.714;23.244;2023-03-20T05:04:51;11.07;;;8.27;;
11414;SDS011;5763;42.714;23.244;2023-03-20T05:07:18;10.88;;;7.70;;
11414;SDS011;5763;42.714;23.244;2023-03-20T05:09:45;12.35;;;8.50;;
11414;SDS011;5763;42.714;23.244;2023-03-20T05:12:12;12.20;;;8.80;;
11414;SDS011;5763;42.714;23.244;2023-03-20T05:14:39;11.80;;;8.75;;
11414;SDS011;5763;42.714;23.244;2023-03-20T05:17:06;12.13;;;8.85;;
11414;SDS011;5763;42.714;23.244;2023-03-20T05:19:34;13.52;;;9.10;;
11414;SDS011;5763;42.714;23.244;2023-03-20T05:22:02;15.70;;;9.77;;
11414;SDS011;5763;42.714;23.244;2023-03-20T05:24:29;14.20;;;8.98;;
11414;SDS011;5763;42.714;23.244;2023-03-20T05:26:56;17.05;;;9.10;;
11414;SDS011;5763;42.714;23.244;2023-03-20T05:29:23;16.13;;;9.23;;
11414;SDS011;5763;42.714;23.244;2023-03-20T05:31:50;11.75;;;8.68;;
11414;SDS011;5763;42.714;23.244;2023-03-20T05:34:16;15.77;;;9.15;;
11414;SDS011;5763;42.714;23.244;2023-03-20T05:36:45;17.35;;;9.07;;
11414;SDS011;5763;42.714;23.244;2023-03-20T05:39:11;17.98;;;9.50;;
11414;SDS011;5763;42.714;23.244;2023-03-20T05:41:38;14.85;;;9.05;;
11414;SDS011;5763;42.714;23.244;2023-03-20T05:44:05;14.85;;;9.57;;
11414;SDS011;5763;42.714;23.244;2023-03-20T05:46:32;16.13;;;9.82;;
11414;SDS011;5763;42.714;23.244;2023-03-20T05:48:59;11.63;;;9.93;;
11414;SDS011;5763;42.714;23.244;2023-03-20T05:51:26;17.35;;;10.93;;
11414;SDS011;5763;42.714;23.244;2023-03-20T05:53:54;18.42;;;10.45;;
11414;SDS011;5763;42.714;23.244;2023-03-20T05:56:21;19.08;;;9.65;;
11414;SDS011;5763;42.714;23.244;2023-03-20T05:58:48;15.80;;;10.40;;
11414;SDS011;5763;42.714;23.244;2023-03-20T06:01:16;19.20;;;10.68;;
11414;SDS011;5763;42.714;23.244;2023-03-20T06:03:45;15.52;;;10.20;;
11414;SDS011;5763;42.714;23.244;2023-03-20T06:06:12;21.15;;;11.05;;
11414;SDS011;5763;42.714;23.244;2023-03-20T06:08:39;15.98;;;10.05;;
11414;SDS011;5763;42.714;23.244;2023-03-20T06:11:08;19.27;;;11.95;;
11414;SDS011;5763;42.714;23.244;2023-03-20T06:13:35;21.95;;;13.00;;
11414;SDS011;5763;42.714;23.244;2023-03-20T06:16:03;18.80;;;11.00;;
11414;SDS011;5763;42.714;23.244;2023-03-20T06:18:30;21.77;;;13.10;;
11414;SDS011;5763;42.714;23.244;2023-03-20T06:20:57;19.98;;;12.75;;
11414;SDS011;5763;42.714;23.244;2023-03-20T06:23:24;20.92;;;12.75;;
11414;SDS011;5763;42.714;23.244;2023-03-20T06:25:51;22.60;;;13.18;;
11414;SDS011;5763;42.714;23.244;2023-03-20T06:28:19;20.70;;;12.15;;
11414;SDS011;5763;42.714;23.244;2023-03-20T06:30:45;19.92;;;14.18;;
11414;SDS011;5763;42.714;23.244;2023-03-20T06:33:12;21.55;;;14.15;;
11414;SDS011;5763;42.714;23.244;2023-03-20T06:35:39;27.52;;;16.48;;
11414;SDS011;5763;42.714;23.244;2023-03-20T06:38:06;27.58;;;15.80;;
11414;SDS011;5763;42.714;23.244;2023-03-20T06:40:33;28.73;;;17.13;;
11414;SDS011;5763;42.714;23.244;2023-03-20T06:43:00;22.30;;;15.05;;
11414;SDS011;5763;42.714;23.244;2023-03-20T06:45:28;24.95;;;14.57;;
11414;SDS011;5763;42.714;23.244;2023-03-20T06:47:55;22.35;;;14.00;;
11414;SDS011;5763;42.714;23.244;2023-03-20T06:50:21;21.63;;;14.13;;
11414;SDS011;5763;42.714;23.244;2023-03-20T06:52:48;21.40;;;13.35;;
11414;SDS011;5763;42.714;23.244;2023-03-20T06:55:16;24.00;;;15.55;;
11414;SDS011;5763;42.714;23.244;2023-03-20T06:57:43;28.50;;;17.17;;
11414;SDS011;5763;42.714;23.244;2023-03-20T07:00:11;28.45;;;18.05;;
11414;SDS011;5763;42.714;23.244;2023-03-20T07:02:39;23.33;;;17.92;;
11414;SDS011;5763;42.714;23.244;2023-03-20T07:05:07;25.85;;;17.65;;
11414;SDS011;5763;42.714;23.244;2023-03-20T07:07:34;25.42;;;16.42;;
11414;SDS011;5763;42.714;23.244;2023-03-20T07:10:01;24.90;;;17.38;;
11414;SDS011;5763;42.714;23.244;2023-03-20T07:12:28;23.75;;;16.42;;
11414;SDS011;5763;42.714;23.244;2023-03-20T07:14:55;27.55;;;16.50;;
11414;SDS011;5763;42.714;23.244;2023-03-20T07:17:22;24.90;;;15.40;;
11414;SDS011;5763;42.714;23.244;2023-03-20T07:19:51;19.10;;;14.50;;
11414;SDS011;5763;42.714;23.244;2023-03-20T07:22:19;20.27;;;14.45;;
11414;SDS011;5763;42.714;23.244;2023-03-20T07:24:47;25.02;;;14.88;;
11414;SDS011;5763;42.714;23.244;2023-03-20T07:27:14;21.98;;;14.45;;
11414;SDS011;5763;42.714;23.244;2023-03-20T07:29:42;24.00;;;14.80;;
11414;SDS011;5763;42.714;23.244;2023-03-20T07:32:08;25.30;;;15.40;;
11414;SDS011;5763;42.714;23.244;2023-03-20T07:34:35;24.20;;;14.70;;
11414;SDS011;5763;42.714;23.244;2023-03-20T07:37:04;20.88;;;14.95;;
11414;SDS011;5763;42.714;23.244;2023-03-20T07:39:31;20.95;;;14.95;;
11414;SDS011;5763;42.714;23.244;2023-03-20T07:41:58;21.60;;;13.70;;
11414;SDS011;5763;42.714;23.244;2023-03-20T07:44:25;23.10;;;14.30;;
11414;SDS011;5763;42.714;23.244;2023-03-20T07:46:51;18.58;;;14.05;;
11414;SDS011;5763;42.714;23.244;2023-03-20T07:49:18;18.75;;;12.75;;
11414;SDS011;5763;42.714;23.244;2023-03-20T07:51:45;16.85;;;12.48;;
11414;SDS011;5763;42.714;23.244;2023-03-20T07:54:14;15.73;;;12.07;;
11414;SDS011;5763;42.714;23.244;2023-03-20T07:56:41;14.27;;;10.98;;
11414;SDS011;5763;42.714;23.244;2023-03-20T07:59:08;14.88;;;11.07;;
11414;SDS011;5763;42.714;23.244;2023-03-20T08:01:35;18.10;;;11.20;;
11414;SDS011;5763;42.714;23.244;2023-03-20T08:04:02;14.95;;;10.70;;
11414;SDS011;5763;42.714;23.244;2023-03-20T08:06:28;16.17;;;10.75;;
11414;SDS011;5763;42.714;23.244;2023-03-20T08:08:55;11.88;;;9.23;;
11414;SDS011;5763;42.714;23.244;2023-03-20T08:11:23;12.07;;;8.48;;
11414;SDS011;5763;42.714;23.244;2023-03-20T08:13:50;16.35;;;8.57;;
11414;SDS011;5763;42.714;23.244;2023-03-20T08:16:17;14.13;;;9.32;;
11414;SDS011;5763;42.714;23.244;2023-03-20T08:18:44;13.00;;;8.75;;
11414;SDS011;5763;42.714;23.244;2023-03-20T08:21:11;11.20;;;8.63;;
11414;SDS011;5763;42.714;23.244;2023-03-20T08:23:38;15.68;;;8.63;;
11414;SDS011;5763;42.714;23.244;2023-03-20T08:26:04;9.52;;;7.80;;
11414;SDS011;5763;42.714;23.244;2023-03-20T08:28:34;9.95;;;8.13;;
11414;SDS011;5763;42.714;23.244;2023-03-20T08:31:01;12.50;;;7.75;;
11414;SDS011;5763;42.714;23.244;2023-03-20T08:33:28;12.27;;;7.55;;
11414;SDS011;5763;42.714;23.244;2023-03-20T08:35:55;10.73;;;7.05;;
11414;SDS011;5763;42.714;23.244;2023-03-20T08:38:22;10.88;;;7.75;;
11414;SDS011;5763;42.714;23.244;2023-03-20T08:40:49;10.32;;;6.88;;
11414;SDS011;5763;42.714;23.244;2023-03-20T08:43:16;10.75;;;7.38;;
11414;SDS011;5763;42.714;23.244;2023-03-20T08:45:44;9.60;;;7.60;;
11414;SDS011;5763;42.714;23.244;2023-03-20T08:48:11;11.93;;;8.15;;
11414;SDS011;5763;42.714;23.244;2023-03-20T08:50:38;9.85;;;8.60;;
11414;SDS011;5763;42.714;23.244;2023-03-20T08:53:05;13.23;;;8.90;;
11414;SDS011;5763;42.714;23.244;2023-03-20T08:55:32;12.48;;;7.90;;
11414;SDS011;5763;42.714;23.244;2023-03-20T08:57:59;11.98;;;8.43;;
11414;SDS011;5763;42.714;23.244;2023-03-20T09:00:26;11.50;;;8.73;;
11414;SDS011;5763;42.714;23.244;2023-03-20T09:02:54;15.27;;;8.68;;
11414;SDS011;5763;42.714;23.244;2023-03-20T09:05:21;12.95;;;8.95;;
11414;SDS011;5763;42.714;23.244;2023-03-20T09:07:48;11.00;;;8.88;;
11414;SDS011;5763;42.714;23.244;2023-03-20T09:10:15;12.35;;;9.07;;
11414;SDS011;5763;42.714;23.244;2023-03-20T09:12:42;11.20;;;8.57;;
11414;SDS011;5763;42.714;23.244;2023-03-20T09:15:10;13.27;;;9.25;;
11414;SDS011;5763;42.714;23.244;2023-03-20T09:17:37;15.25;;;10.40;;
11414;SDS011;5763;42.714;23.244;2023-03-20T09:20:05;12.25;;;9.32;;
11414;SDS011;5763;42.714;23.244;2023-03-20T09:22:33;14.93;;;10.40;;
11414;SDS011;5763;42.714;23.244;2023-03-20T09:25:00;15.18;;;9.88;;
11414;SDS011;5763;42.714;23.244;2023-03-20T09:27:27;14.70;;;10.02;;
11414;SDS011;5763;42.714;23.244;2023-03-20T09:29:54;15.45;;;10.13;;
11414;SDS011;5763;42.714;23.244;2023-03-20T09:32:21;11.57;;;9.70;;
11414;SDS011;5763;42.714;23.244;2023-03-20T09:34:47;14.77;;;10.30;;
11414;SDS011;5763;42.714;23.244;2023-03-20T09:37:15;13.48;;;9.85;;
11414;SDS011;5763;42.714;23.244;2023-03-20T09:39:42;16.50;;;9.65;;
11414;SDS011;5763;42.714;23.244;2023-03-20T09:42:13;14.23;;;9.88;;
11414;SDS011;5763;42.714;23.244;2023-03-20T09:44:53;13.93;;;10.48;;
11414;SDS011;5763;42.714;23.244;2023-03-20T09:47:29;12.38;;;10.32;;
11414;SDS011;5763;42.714;23.244;2023-03-20T09:50:10;15.32;;;10.07;;
11414;SDS011;5763;42.714;23.244;2023-03-20T09:52:51;13.13;;;10.45;;
11414;SDS011;5763;42.714;23.244;2023-03-20T09:55:24;15.23;;;11.07;;
11414;SDS011;5763;42.714;23.244;2023-03-20T09:57:58;15.95;;;10.57;;
11414;SDS011;5763;42.714;23.244;2023-03-20T10:00:29;16.85;;;10.85;;
11414;SDS011;5763;42.714;23.244;2023-03-20T10:02:59;14.55;;;11.55;;
11414;SDS011;5763;42.714;23.244;2023-03-20T10:05:28;15.57;;;11.77;;
11414;SDS011;5763;42.714;23.244;2023-03-20T10:07:59;19.42;;;12.38;;
11414;SDS011;5763;42.714;23.244;2023-03-20T10:10:30;18.38;;;12.52;;
11414;SDS011;5763;42.714;23.244;2023-03-20T10:13:24;19.50;;;13.05;;
11414;SDS011;5763;42.714;23.244;2023-03-20T10:16:02;15.10;;;11.88;;
11414;SDS011;5763;42.714;23.244;2023-03-20T10:18:39;15.45;;;12.38;;
11414;SDS011;5763;42.714;23.244;2023-03-20T10:21:15;16.00;;;11.93;;
11414;SDS011;5763;42.714;23.244;2023-03-20T10:23:48;17.00;;;11.82;;
11414;SDS011;5763;42.714;23.244;2023-03-20T10:26:22;16.38;;;11.38;;
11414;SDS011;5763;42.714;23.244;2023-03-20T10:28:50;17.05;;;11.77;;
11414;SDS011;5763;42.714;23.244;2023-03-20T10:31:31;17.13;;;11.52;;
11414;SDS011;5763;42.714;23.244;2023-03-20T10:34:10;13.73;;;11.35;;
11414;SDS011;5763;42.714;23.244;2023-03-20T10:36:51;14.00;;;10.63;;
11414;SDS011;5763;42.714;23.244;2023-03-20T10:39:31;14.57;;;10.15;;
11414;SDS011;5763;42.714;23.244;2023-03-20T10:42:09;15.75;;;10.77;;
11414;SDS011;5763;42.714;23.244;2023-03-20T10:44:43;15.35;;;10.82;;
11414;SDS011;5763;42.714;23.244;2023-03-20T10:47:15;13.60;;;10.45;;
11414;SDS011;5763;42.714;23.244;2023-03-20T10:49:46;17.00;;;10.52;;
11414;SDS011;5763;42.714;23.244;2023-03-20T10:52:18;15.68;;;10.55;;
11414;SDS011;5763;42.714;23.244;2023-03-20T10:54:51;13.25;;;10.38;;
11414;SDS011;5763;42.714;23.244;2023-03-20T10:57:22;13.00;;;9.52;;
11414;SDS011;5763;42.714;23.244;2023-03-20T10:59:51;13.80;;;10.00;;
11414;SDS011;5763;42.714;23.244;2023-03-20T11:02:22;13.55;;;9.95;;
11414;SDS011;5763;42.714;23.244;2023-03-20T11:04:52;12.57;;;9.25;;
11414;SDS011;5763;42.714;23.244;2023-03-20T11:07:22;14.48;;;10.30;;
11414;SDS011;5763;42.714;23.244;2023-03-20T11:12:47;13.02;;;8.80;;
11414;SDS011;5763;42.714;23.244;2023-03-20T11:15:20;13.80;;;9.15;;
11414;SDS011;5763;42.714;23.244;2023-03-20T11:17:50;13.57;;;9.95;;
11414;SDS011;5763;42.714;23.244;2023-03-20T11:20:18;15.15;;;9.30;;
11414;SDS011;5763;42.714;23.244;2023-03-20T11:22:46;10.52;;;8.55;;
11414;SDS011;5763;42.714;23.244;2023-03-20T11:25:21;10.43;;;8.05;;
11414;SDS011;5763;42.714;23.244;2023-03-20T11:27:55;9.18;;;7.47;;
11414;SDS011;5763;42.714;23.244;2023-03-20T11:30:23;11.52;;;7.65;;
11414;SDS011;5763;42.714;23.244;2023-03-20T11:32:49;11.73;;;7.32;;
11414;SDS011;5763;42.714;23.244;2023-03-20T11:35:21;10.95;;;7.25;;
11414;SDS011;5763;42.714;23.244;2023-03-20T11:38:05;8.45;;;7.15;;
11414;SDS011;5763;42.714;23.244;2023-03-20T11:40:35;7.97;;;6.55;;
11414;SDS011;5763;42.714;23.244;2023-03-20T11:43:07;11.43;;;7.25;;
11414;SDS011;5763;42.714;23.244;2023-03-20T11:45:37;11.60;;;7.38;;
11414;SDS011;5763;42.714;23.244;2023-03-20T11:48:07;6.55;;;5.07;;
11414;SDS011;5763;42.714;23.244;2023-03-20T11:50:42;6.68;;;5.22;;
11414;SDS011;5763;42.714;23.244;2023-03-20T11:53:18;10.52;;;5.18;;
11414;SDS011;5763;42.714;23.244;2023-03-20T11:55:57;6.65;;;4.90;;
11414;SDS011;5763;42.714;23.244;2023-03-20T11:58:29;8.35;;;5.45;;
11414;SDS011;5763;42.714;23.244;2023-03-20T12:00:56;5.80;;;3.92;;
11414;SDS011;5763;42.714;23.244;2023-03-20T12:03:38;9.70;;;4.65;;
11414;SDS011;5763;42.714;23.244;2023-03-20T12:06:12;7.07;;;3.80;;
11414;SDS011;5763;42.714;23.244;2023-03-20T12:08:42;6.10;;;3.88;;
11414;SDS011;5763;42.714;23.244;2023-03-20T12:11:20;5.35;;;3.40;;
11414;SDS011;5763;42.714;23.244;2023-03-20T12:13:58;5.63;;;3.78;;
11414;SDS011;5763;42.714;23.244;2023-03-20T12:16:28;4.75;;;3.60;;
11414;SDS011;5763;42.714;23.244;2023-03-20T12:18:58;4.13;;;3.35;;
11414;SDS011;5763;42.714;23.244;2023-03-20T12:21:29;7.35;;;3.35;;
11414;SDS011;5763;42.714;23.244;2023-03-20T12:24:03;4.38;;;3.15;;
11414;SDS011;5763;42.714;23.244;2023-03-20T12:26:41;3.83;;;3.00;;
11414;SDS011;5763;42.714;23.244;2023-03-20T12:29:17;6.07;;;3.47;;
11414;SDS011;5763;42.714;23.244;2023-03-20T12:31:52;4.75;;;3.45;;
11414;SDS011;5763;42.714;23.244;2023-03-20T12:34:23;8.85;;;3.42;;
11414;SDS011;5763;42.714;23.244;2023-03-20T12:36:57;4.65;;;3.22;;
11414;SDS011;5763;42.714;23.244;2023-03-20T12:39:25;5.13;;;3.38;;
11414;SDS011;5763;42.714;23.244;2023-03-20T12:42:01;6.38;;;3.83;;
11414;SDS011;5763;42.714;23.244;2023-03-20T12:44:37;4.10;;;3.00;;
11414;SDS011;5763;42.714;23.244;2023-03-20T12:47:11;3.30;;;3.00;;
11414;SDS011;5763;42.714;23.244;2023-03-20T12:49:48;3.70;;;3.13;;
11414;SDS011;5763;42.714;23.244;2023-03-20T12:52:27;3.10;;;2.67;;
11414;SDS011;5763;42.714;23.244;2023-03-20T12:55:03;3.33;;;3.03;;
11414;SDS011;5763;42.714;23.244;2023-03-20T12:57:38;3.90;;;3.22;;
11414;SDS011;5763;42.714;23.244;2023-03-20T13:00:19;6.32;;;3.28;;
11414;SDS011;5763;42.714;23.244;2023-03-20T13:02:56;4.80;;;4.28;;
11414;SDS011;5763;42.714;23.244;2023-03-20T13:05:41;3.88;;;3.10;;
11414;SDS011;5763;42.714;23.244;2023-03-20T13:08:24;5.35;;;3.60;;
11414;SDS011;5763;42.714;23.244;2023-03-20T13:11:14;3.45;;;3.03;;
11414;SDS011;5763;42.714;23.244;2023-03-20T13:13:47;3.33;;;3.03;;
11414;SDS011;5763;42.714;23.244;2023-03-20T13:16:24;4.15;;;3.20;;
11414;SDS011;5763;42.714;23.244;2023-03-20T13:19:00;3.38;;;3.00;;
11414;SDS011;5763;42.714;23.244;2023-03-20T13:21:32;4.30;;;3.70;;
11414;SDS011;5763;42.714;23.244;2023-03-20T13:24:07;3.83;;;3.42;;
11414;SDS011;5763;42.714;23.244;2023-03-20T13:26:45;5.65;;;3.88;;
11414;SDS011;5763;42.714;23.244;2023-03-20T13:29:18;6.88;;;4.35;;
11414;SDS011;5763;42.714;23.244;2023-03-20T13:31:58;4.78;;;4.03;;
11414;SDS011;5763;42.714;23.244;2023-03-20T13:34:34;5.70;;;3.60;;
11414;SDS011;5763;42.714;23.244;2023-03-20T13:37:14;6.30;;;3.85;;
11414;SDS011;5763;42.714;23.244;2023-03-20T13:39:45;4.78;;;4.20;;
11414;SDS011;5763;42.714;23.244;2023-03-20T13:42:18;4.82;;;3.92;;
11414;SDS011;5763;42.714;23.244;2023-03-20T13:44:48;5.25;;;4.07;;
11414;SDS011;5763;42.714;23.244;2023-03-20T13:47:20;4.68;;;3.88;;
11414;SDS011;5763;42.714;23.244;2023-03-20T13:49:52;4.43;;;3.88;;
11414;SDS011;5763;42.714;23.244;2023-03-20T13:52:24;3.70;;;3.40;;
11414;SDS011;5763;42.714;23.244;2023-03-20T13:54:59;5.13;;;3.60;;
11414;SDS011;5763;42.714;23.244;2023-03-20T13:57:47;5.57;;;3.22;;
11414;SDS011;5763;42.714;23.244;2023-03-20T14:00:24;6.00;;;3.97;;
11414;SDS011;5763;42.714;23.244;2023-03-20T14:03:09;4.20;;;3.75;;
11414;SDS011;5763;42.714;23.244;2023-03-20T14:05:44;5.80;;;3.70;;
11414;SDS011;5763;42.714;23.244;2023-03-20T14:11:07;5.15;;;3.60;;
11414;SDS011;5763;42.714;23.244;2023-03-20T14:13:41;4.25;;;3.80;;
11414;SDS011;5763;42.714;23.244;2023-03-20T14:16:13;6.22;;;3.55;;
11414;SDS011;5763;42.714;23.244;2023-03-20T14:18:44;5.38;;;3.80;;
11414;SDS011;5763;42.714;23.244;2023-03-20T14:21:13;5.25;;;3.80;;
11414;SDS011;5763;42.714;23.244;2023-03-20T14:23:46;4.85;;;3.85;;
11414;SDS011;5763;42.714;23.244;2023-03-20T14:26:18;6.57;;;3.65;;
11414;SDS011;5763;42.714;23.244;2023-03-20T14:28:55;5.43;;;4.78;;
11414;SDS011;5763;42.714;23.244;2023-03-20T14:31:29;5.40;;;3.42;;
11414;SDS011;5763;42.714;23.244;2023-03-20T14:34:06;6.03;;;3.90;;
11414;SDS011;5763;42.714;23.244;2023-03-20T14:36:43;6.68;;;3.78;;
11414;SDS011;5763;42.714;23.244;2023-03-20T14:39:19;4.70;;;3.72;;
11414;SDS011;5763;42.714;23.244;2023-03-20T14:41:57;5.35;;;4.50;;
11414;SDS011;5763;42.714;23.244;2023-03-20T14:44:45;8.10;;;4.07;;
11414;SDS011;5763;42.714;23.244;2023-03-20T14:47:21;6.15;;;3.67;;
11414;SDS011;5763;42.714;23.244;2023-03-20T14:50:00;5.28;;;3.72;;
11414;SDS011;5763;42.714;23.244;2023-03-20T14:52:39;3.63;;;2.85;;
11414;SDS011;5763;42.714;23.244;2023-03-20T14:58:34;4.72;;;4.00;;
11414;SDS011;5763;42.714;23.244;2023-03-20T15:01:22;4.72;;;3.70;;
11414;SDS011;5763;42.714;23.244;2023-03-20T15:03:52;3.92;;;3.28;;
11414;SDS011;5763;42.714;23.244;2023-03-20T15:06:25;7.28;;;3.58;;
11414;SDS011;5763;42.714;23.244;2023-03-20T15:08:54;5.90;;;3.50;;
11414;SDS011;5763;42.714;23.244;2023-03-20T15:11:24;5.65;;;3.40;;
11414;SDS011;5763;42.714;23.244;2023-03-20T15:13:52;5.43;;;3.47;;
11414;SDS011;5763;42.714;23.244;2023-03-20T15:16:25;5.43;;;3.75;;